Purki — 9HA2386 — position and weather

sailwx.info

Track history (hours):
 
Tides and Currents Weather Stations Pressure Air Temp Water Temp Dewpoint Dewpoint Depression Visibility Wind Speed Wind Dir Waves Ship Positions

Purki

Last reported at 2016-Sep-12 17:31 UTC. Time now 2016-Oct-01 20:38 UTC.
Position N 37°17' E 009°56'.
Warning: this ship's position is 19 days out of date.

Length 146 m; draft 7.5 m.

Type: Cargo ship. MMSI: 248495000.

Date/timePositionNaut miles runAvg speedWind from/ knotsBaromVisibWave heightAir tempDewpointWater temp
2016-Sep-12 17:31N 37°17' E 009°56'0 0.0
2016-Sep-12 14:31N 37°17' E 009°56'0 0.0
2016-Sep-11 21:10N 37°17' E 009°56'16912.2
2016-Sep-11 07:24N 36°56' E 013°26'4712.3
2016-Sep-11 03:33N 36°42' E 014°23'1312.6
2016-Sep-11 02:33N 36°38' E 014°38'1312.7
2016-Sep-11 01:33N 36°35' E 014°53'40612.5
2016-Sep-09 17:07N 36°27' E 023°18'1212.0
2016-Sep-09 16:05N 36°35' E 023°29'712.1
2016-Sep-09 15:32N 36°40' E 023°35'1312.8
2016-Sep-09 14:33N 36°50' E 023°45'1313.3
2016-Sep-09 13:33N 37°00' E 023°55'1413.4
2016-Sep-09 12:33N 37°11' E 024°05'4213.1
2016-Sep-09 09:21N 37°47' E 024°32'3913.1
2016-Sep-09 06:21N 38°14' E 025°08'101 2.5
2016-Sep-07 14:31N 39°51' E 025°46'1813.4
2016-Sep-07 13:10N 40°01' E 026°05'131 5.3
2016-Sep-06 12:33N 40°58' E 028°41'0 0.0
2016-Sep-06 11:32N 40°58' E 028°41'0 0.0
2016-Sep-06 09:33N 40°58' E 028°41'  
Track history (hours):
 
Tides and Currents Weather Stations Pressure Air Temp Water Temp Dewpoint Dewpoint Depression Visibility Wind Speed Wind Dir Waves Ship Positions

Purki

Last reported at 2016-Sep-12 17:31 UTC. Time now 2016-Oct-01 20:38 UTC.
Position N 37°17' E 009°56'.
Warning: this ship's position is 19 days out of date.

Length 146 m; draft 7.5 m.

Type: Cargo ship. MMSI: 248495000.

Date/timePositionNaut miles runAvg speedWind from/ knotsBaromVisibWave heightAir tempDewpointWater temp
2016-Sep-12 17:31N 37°17' E 009°56'0 0.0
2016-Sep-12 14:31N 37°17' E 009°56'0 0.0
2016-Sep-11 21:10N 37°17' E 009°56'16912.2
2016-Sep-11 07:24N 36°56' E 013°26'4712.3
2016-Sep-11 03:33N 36°42' E 014°23'1312.6
2016-Sep-11 02:33N 36°38' E 014°38'1312.7
2016-Sep-11 01:33N 36°35' E 014°53'40612.5
2016-Sep-09 17:07N 36°27' E 023°18'1212.0
2016-Sep-09 16:05N 36°35' E 023°29'712.1
2016-Sep-09 15:32N 36°40' E 023°35'1312.8
2016-Sep-09 14:33N 36°50' E 023°45'1313.3
2016-Sep-09 13:33N 37°00' E 023°55'1413.4
2016-Sep-09 12:33N 37°11' E 024°05'4213.1
2016-Sep-09 09:21N 37°47' E 024°32'3913.1
2016-Sep-09 06:21N 38°14' E 025°08'101 2.5
2016-Sep-07 14:31N 39°51' E 025°46'1813.4
2016-Sep-07 13:10N 40°01' E 026°05'131 5.3
2016-Sep-06 12:33N 40°58' E 028°41'0 0.0
2016-Sep-06 11:32N 40°58' E 028°41'0 0.0
2016-Sep-06 09:33N 40°58' E 028°41'  

Dump ship's entire track history